EGLL

London Heathrow Airport

London, United Kingdom
METAR EGLL 161150Z AUTO 19011KT 160V220 9999 SCT019 19/15 Q1015 NOSIG
Observed Flight Rules
Oct-16 @ 11:50 UTC (23 minutes ago) Visual Flight Rules
Wind Visibility Clouds
190° at 11 knots 10,000+ meters
  • Scattered at 1,900' AGL
Temperatures Readings
Current 19°C / 66°F
Dewpoint 15°C / 59°F
Humidity 78%
Altimeter 29.97" Hg
Pressure 1015 hPa
Elevation 24
METAR EGLL 161150Z AUTO 19011KT 160V220 9999 SCT019 19/15 Q1015 NOSIG
Observed Flight Rules
Oct-16 @ 11:50 UTC
(23 minutes ago)
VFR
Wind Visibility
190° at 11 knots 10,000+ meters
Clouds
  • Scattered at 1,900' AGL
Temperature Dewpoint
19°C / 66°F 15°C / 59°F
Humidity Altimeter Pressure
78% 29.97" Hg 1015 hPa